createdAt,value
2022-11-20T05:30:58.580Z,75.60
2022-11-20T05:31:58.541Z,73.70
2022-11-20T05:32:58.521Z,71.70
2022-11-20T05:33:58.513Z,81.00
2022-11-20T05:34:58.508Z,78.80
2022-11-20T05:35:58.480Z,84.20
2022-11-20T05:36:58.554Z,71.70
2022-11-20T05:37:58.459Z,83.90
2022-11-20T05:39:01.754Z,66.60
2022-11-20T05:39:58.443Z,76.80
2022-11-20T05:40:58.421Z,79.50
2022-11-20T05:41:58.419Z,75.00
2022-11-20T05:42:58.417Z,95.20
2022-11-20T05:43:58.377Z,77.40
2022-11-20T05:44:58.387Z,96.50
2022-11-20T05:45:58.377Z,85.90
2022-11-20T05:46:58.378Z,85.70
2022-11-20T05:47:58.368Z,85.40
2022-11-20T05:48:58.409Z,84.30
2022-11-20T05:49:58.308Z,92.20
2022-11-20T05:50:58.296Z,93.20
2022-11-20T05:51:58.297Z,98.70
2022-11-20T05:52:58.273Z,108.20
2022-11-20T05:53:58.326Z,105.20
2022-11-20T05:54:58.276Z,91.20
2022-11-20T05:55:58.247Z,90.80
2022-11-20T05:56:58.256Z,90.00
2022-11-20T05:57:58.212Z,88.60
2022-11-20T05:58:58.193Z,100.10
2022-11-20T05:59:58.183Z,91.80
2022-11-20T06:00:58.188Z,86.40
2022-11-20T06:01:58.187Z,90.30
2022-11-20T06:02:58.251Z,97.50
2022-11-20T06:03:58.137Z,83.90
2022-11-20T06:04:58.122Z,87.10
2022-11-20T06:05:58.112Z,65.20
2022-11-20T06:06:58.181Z,91.20
2022-11-20T06:07:58.169Z,84.50
2022-11-20T06:08:58.070Z,92.20
2022-11-20T06:09:58.059Z,88.30
2022-11-20T06:10:58.049Z,107.30
2022-11-20T06:11:58.146Z,68.80
2022-11-20T06:12:58.020Z,93.80
2022-11-20T06:13:58.009Z,101.80
2022-11-20T06:14:58.000Z,75.80
2022-11-20T06:15:57.986Z,88.80
2022-11-20T06:16:57.995Z,93.50
2022-11-20T06:17:57.971Z,97.00
2022-11-20T06:18:57.937Z,97.30
2022-11-20T06:19:57.937Z,75.80
2022-11-20T06:20:57.920Z,77.90
2022-11-20T06:21:57.927Z,74.80
2022-11-20T06:22:57.889Z,67.70
2022-11-20T06:23:57.876Z,69.50
2022-11-20T06:24:57.866Z,63.30
2022-11-20T06:25:57.866Z,59.40
2022-11-20T06:26:57.846Z,59.30
2022-11-20T06:27:57.836Z,57.60
2022-11-20T06:28:57.817Z,51.40
2022-11-20T06:29:57.805Z,65.00
2022-11-20T06:30:57.786Z,65.70
2022-11-20T06:31:57.783Z,63.70
2022-11-20T06:32:57.775Z,62.30
2022-11-20T06:33:57.753Z,52.40
2022-11-20T06:34:57.746Z,74.00
2022-11-20T06:36:00.930Z,72.20
2022-11-20T06:36:57.714Z,85.30
2022-11-20T06:37:57.721Z,63.40
2022-11-20T06:38:57.683Z,71.80
2022-11-20T06:39:57.682Z,78.80
2022-11-20T06:40:57.661Z,73.20
2022-11-20T06:41:59.298Z,53.90
2022-11-20T06:42:57.651Z,50.40
2022-11-20T06:43:57.660Z,51.40
2022-11-20T06:44:57.611Z,43.60
2022-11-20T06:45:57.600Z,51.20
2022-11-20T06:46:57.588Z,52.70
2022-11-20T06:47:57.599Z,47.90
2022-11-20T06:48:57.560Z,47.40
2022-11-20T06:49:57.559Z,48.50
2022-11-20T06:50:57.554Z,49.20
2022-11-20T06:51:57.530Z,44.10
2022-11-20T06:52:57.528Z,46.50
2022-11-20T06:53:57.513Z,46.10
2022-11-20T06:54:57.500Z,40.60
2022-11-20T06:55:57.479Z,42.40
2022-11-20T06:56:57.468Z,46.30
2022-11-20T06:57:57.466Z,46.10
2022-11-20T06:58:57.437Z,48.50
2022-11-20T06:59:57.435Z,47.60
2022-11-20T07:00:57.440Z,50.90
2022-11-20T07:01:57.404Z,51.40
2022-11-20T07:02:57.396Z,52.40
2022-11-20T07:03:57.384Z,46.30
2022-11-20T07:04:57.364Z,42.90
2022-11-20T07:05:57.367Z,48.40
2022-11-20T07:06:57.571Z,45.30
2022-11-20T07:07:57.344Z,42.30
2022-11-20T07:08:57.315Z,48.20
2022-11-20T07:09:57.312Z,41.70
2022-11-20T07:10:57.333Z,38.00
2022-11-20T07:11:57.294Z,41.00
2022-11-20T07:12:57.282Z,40.70
2022-11-20T07:13:57.252Z,42.60
2022-11-20T07:14:57.242Z,53.80
2022-11-20T07:15:57.231Z,53.70
2022-11-20T07:16:57.211Z,54.20
2022-11-20T07:17:57.211Z,49.00
2022-11-20T07:18:57.197Z,48.60
2022-11-20T07:19:57.191Z,42.00
2022-11-20T07:20:57.164Z,48.00
2022-11-20T07:21:57.161Z,38.40
2022-11-20T07:22:57.158Z,43.40
2022-11-20T07:23:57.130Z,42.60
2022-11-20T07:24:57.110Z,42.10
2022-11-20T07:25:57.107Z,41.40
2022-11-20T07:26:57.211Z,37.60
2022-11-20T07:27:57.079Z,44.60
2022-11-20T07:28:57.068Z,42.00
2022-11-20T07:29:57.048Z,41.60
2022-11-20T07:30:57.038Z,38.40
2022-11-20T07:31:57.166Z,36.60
2022-11-20T07:32:57.027Z,41.90
2022-11-20T07:33:57.015Z,44.50
2022-11-20T07:34:56.997Z,54.50
2022-11-20T07:35:56.976Z,61.30
2022-11-20T07:36:57.179Z,55.80
2022-11-20T07:37:56.968Z,46.00
2022-11-20T07:38:56.956Z,46.10
2022-11-20T07:39:56.960Z,33.50
2022-11-20T07:40:56.914Z,33.40
2022-11-20T07:41:57.117Z,33.90
2022-11-20T07:42:56.884Z,37.30
2022-11-20T07:43:56.885Z,31.20
2022-11-20T07:44:56.893Z,35.50
2022-11-20T07:45:56.851Z,36.60
2022-11-20T07:46:57.109Z,36.50
2022-11-20T07:47:56.823Z,37.20
2022-11-20T07:48:56.823Z,35.50
2022-11-20T07:49:56.822Z,36.00
2022-11-20T07:50:56.783Z,35.80
2022-11-20T07:52:01.750Z,39.40
2022-11-20T07:52:57.752Z,44.10
2022-11-20T07:53:56.761Z,42.10
2022-11-20T07:54:56.751Z,41.00
2022-11-20T07:55:56.722Z,37.50
2022-11-20T07:56:56.703Z,37.80
2022-11-20T07:57:56.731Z,38.40
2022-11-20T07:58:56.691Z,38.80
2022-11-20T07:59:56.688Z,40.20
2022-11-20T08:00:56.697Z,40.50
2022-11-20T08:01:56.639Z,39.80
2022-11-20T08:02:56.657Z,44.00
2022-11-20T08:03:56.638Z,46.60
2022-11-20T08:04:56.609Z,52.10
2022-11-20T08:05:56.608Z,46.30
2022-11-20T08:06:56.599Z,43.70
2022-11-20T08:07:56.610Z,45.80
2022-11-20T08:08:56.577Z,50.80
2022-11-20T08:09:56.537Z,63.40
2022-11-20T08:10:56.555Z,56.20
2022-11-20T08:11:56.557Z,48.20
2022-11-20T08:12:56.506Z,53.00
2022-11-20T08:13:56.577Z,47.90
2022-11-20T08:14:56.487Z,46.20
2022-11-20T08:15:56.497Z,36.80
2022-11-20T08:16:56.455Z,36.40
2022-11-20T08:18:23.267Z,33.90
2022-11-20T08:18:57.445Z,29.30
2022-11-20T08:19:56.475Z,31.30
2022-11-20T08:20:56.407Z,29.30
2022-11-20T08:21:56.392Z,27.60
2022-11-20T08:22:56.394Z,27.90
2022-11-20T08:23:56.378Z,28.30
2022-11-20T08:24:56.354Z,24.80
2022-11-20T08:25:56.343Z,23.60
2022-11-20T08:26:56.374Z,111.90
2022-11-20T08:28:00.126Z,54.80
2022-11-20T08:28:56.319Z,27.10
2022-11-20T08:29:56.282Z,27.70
2022-11-20T08:30:56.273Z,23.60
2022-11-20T08:31:56.291Z,36.50
2022-11-20T08:32:56.269Z,38.20
2022-11-20T08:33:56.263Z,34.70
2022-11-20T08:34:56.261Z,36.00
2022-11-20T08:35:56.220Z,29.30
2022-11-20T08:36:56.201Z,28.30
2022-11-20T08:37:56.189Z,25.10
2022-11-20T08:38:56.187Z,28.50
2022-11-20T08:39:56.170Z,27.40
2022-11-20T08:40:56.148Z,25.40
2022-11-20T08:41:56.139Z,37.80
2022-11-20T08:42:56.173Z,32.00
2022-11-20T08:43:56.118Z,43.10
2022-11-20T08:44:56.089Z,37.30
2022-11-20T08:45:56.093Z,34.40
2022-11-20T08:46:56.068Z,26.20
2022-11-20T08:47:56.077Z,25.60
2022-11-20T08:48:56.048Z,29.30
2022-11-20T08:49:56.031Z,27.00
2022-11-20T08:50:56.030Z,30.00
2022-11-20T08:51:56.010Z,31.90
2022-11-20T08:52:56.002Z,36.50
2022-11-20T08:53:55.987Z,39.60
2022-11-20T08:54:55.959Z,31.60
2022-11-20T08:55:55.955Z,34.10
2022-11-20T08:56:55.935Z,32.40
2022-11-20T08:57:55.926Z,31.40
2022-11-20T08:59:20.168Z,35.10
2022-11-20T09:00:56.933Z,30.50
2022-11-20T09:01:55.875Z,28.90
2022-11-20T09:02:55.896Z,26.90
2022-11-20T09:03:55.855Z,30.30
2022-11-20T09:04:55.834Z,34.70
2022-11-20T09:05:55.823Z,27.10
2022-11-20T09:06:55.804Z,28.30
2022-11-20T09:07:55.794Z,33.10
2022-11-20T09:08:55.795Z,27.20
2022-11-20T09:10:22.115Z,27.70
2022-11-20T09:10:56.772Z,27.20
2022-11-20T09:11:55.744Z,29.60
2022-11-20T09:12:55.731Z,24.50
2022-11-20T09:13:55.733Z,22.30
2022-11-20T09:14:55.701Z,22.30
2022-11-20T09:15:55.692Z,25.40
2022-11-20T09:16:55.671Z,28.10
2022-11-20T09:17:55.673Z,24.80
2022-11-20T09:19:20.252Z,29.00
2022-11-20T09:19:56.649Z,26.40
2022-11-20T09:20:55.648Z,27.80
2022-11-20T09:21:59.596Z,26.90
2022-11-20T09:22:55.591Z,26.20
2022-11-20T09:23:55.631Z,25.90
2022-11-20T09:24:55.571Z,24.80
2022-11-20T09:25:55.561Z,22.90
2022-11-20T09:26:55.551Z,28.10
2022-11-20T09:27:55.542Z,25.50
2022-11-20T09:28:58.078Z,21.90
2022-11-20T09:29:55.508Z,25.60
2022-11-20T09:30:55.503Z,24.70
2022-11-20T09:31:55.490Z,26.20
2022-11-20T09:32:55.471Z,27.10
2022-11-20T09:33:55.459Z,24.00
2022-11-20T09:34:55.460Z,24.10
2022-11-20T09:35:55.430Z,20.30
2022-11-20T09:36:55.467Z,27.10
2022-11-20T09:37:55.399Z,24.40
2022-11-20T09:38:55.388Z,26.70
2022-11-20T09:39:55.390Z,24.80
2022-11-20T09:40:55.360Z,23.80
2022-11-20T09:41:55.351Z,23.90
2022-11-20T09:42:55.386Z,25.70
2022-11-20T09:43:55.327Z,23.80
2022-11-20T09:44:55.457Z,45.20
2022-11-20T09:45:55.299Z,34.70
2022-11-20T09:46:55.297Z,32.30
2022-11-20T09:47:55.279Z,33.10
2022-11-20T09:48:55.260Z,30.10
2022-11-20T09:49:55.265Z,27.60
2022-11-20T09:50:55.238Z,27.30
2022-11-20T09:51:55.228Z,24.50
2022-11-20T09:52:55.211Z,36.50
2022-11-20T09:53:55.199Z,31.10
2022-11-20T09:54:55.199Z,27.30
2022-11-20T09:55:55.166Z,24.30
2022-11-20T09:56:55.155Z,39.70
2022-11-20T09:57:55.159Z,46.70
2022-11-20T09:58:55.118Z,40.30
2022-11-20T09:59:55.138Z,136.40
2022-11-20T10:00:55.125Z,69.00
2022-11-20T10:01:55.095Z,51.00
2022-11-20T10:02:55.067Z,42.40
2022-11-20T10:03:55.062Z,31.30
2022-11-20T10:04:55.046Z,23.80
2022-11-20T10:05:55.069Z,24.80
2022-11-20T10:07:17.286Z,22.20
2022-11-20T10:07:56.132Z,23.40
2022-11-20T10:08:54.988Z,25.10
2022-11-20T10:09:54.990Z,25.30
2022-11-20T10:10:55.032Z,24.40
2022-11-20T10:11:54.958Z,22.20
2022-11-20T10:12:54.938Z,22.70
2022-11-20T10:13:54.926Z,23.20
2022-11-20T10:14:54.916Z,21.90
2022-11-20T10:15:54.896Z,22.50
2022-11-20T10:16:54.876Z,19.80
2022-11-20T10:17:54.875Z,22.70
2022-11-20T10:18:54.854Z,25.30
2022-11-20T10:19:54.857Z,23.30
2022-11-20T10:20:54.834Z,22.70
2022-11-20T10:21:54.816Z,18.70
2022-11-20T10:22:54.795Z,22.60
2022-11-20T10:23:54.796Z,25.30
2022-11-20T10:24:54.786Z,25.40
2022-11-20T10:25:54.767Z,22.20
2022-11-20T10:26:54.786Z,19.80
2022-11-20T10:27:54.735Z,21.40
2022-11-20T10:28:59.216Z,27.40
2022-11-20T10:29:55.715Z,25.20
2022-11-20T10:30:54.696Z,19.80
2022-11-20T10:31:54.687Z,24.50
2022-11-20T10:32:54.675Z,22.70
2022-11-20T10:34:11.519Z,22.20
2022-11-20T10:34:55.655Z,20.30
2022-11-20T10:35:54.645Z,23.70
2022-11-20T10:36:54.617Z,20.50
2022-11-20T10:37:54.606Z,25.30
2022-11-20T10:38:54.625Z,24.60
2022-11-20T10:39:54.615Z,23.10
2022-11-20T10:40:54.595Z,22.80
2022-11-20T10:41:54.558Z,24.30
2022-11-20T10:42:54.555Z,25.10
2022-11-20T10:43:54.526Z,21.10
2022-11-20T10:44:56.734Z,23.90
2022-11-20T10:45:54.565Z,25.20
2022-11-20T10:46:54.485Z,26.20
2022-11-20T10:47:54.476Z,27.30
2022-11-20T10:48:54.464Z,24.80
2022-11-20T10:49:54.515Z,25.70
2022-11-20T10:50:54.435Z,23.10
2022-11-20T10:51:54.426Z,24.00
2022-11-20T10:52:54.407Z,27.50
2022-11-20T10:53:54.433Z,24.80
2022-11-20T10:54:54.386Z,22.60
2022-11-20T10:55:54.388Z,26.00
2022-11-20T10:56:54.401Z,27.70
2022-11-20T10:57:54.367Z,24.90
2022-11-20T10:58:54.326Z,25.50
2022-11-20T10:59:54.319Z,35.00
2022-11-20T11:00:54.418Z,28.20
2022-11-20T11:01:54.286Z,22.60
2022-11-20T11:02:54.274Z,21.80
2022-11-20T11:03:54.267Z,34.60
2022-11-20T11:04:54.250Z,48.70
2022-11-20T11:05:54.257Z,56.90
2022-11-20T11:06:54.246Z,64.50
2022-11-20T11:07:54.220Z,59.50
2022-11-20T11:08:54.198Z,62.50
2022-11-20T11:09:54.191Z,55.30
2022-11-20T11:10:54.181Z,27.80
2022-11-20T11:11:54.157Z,24.70
2022-11-20T11:12:54.137Z,22.40
2022-11-20T11:13:54.236Z,35.50
2022-11-20T11:14:54.117Z,28.30
2022-11-20T11:15:54.119Z,23.30
2022-11-20T11:16:54.095Z,20.80
2022-11-20T11:17:54.106Z,21.00
2022-11-20T11:18:54.140Z,25.00
2022-11-20T11:19:54.080Z,19.00
2022-11-20T11:20:54.181Z,20.00
2022-11-20T11:21:55.861Z,18.60
2022-11-20T11:22:54.007Z,17.50
2022-11-20T11:23:55.560Z,27.00
2022-11-20T11:24:53.995Z,34.80
2022-11-20T11:25:54.017Z,33.50
2022-11-20T11:26:53.958Z,27.50
2022-11-20T11:27:53.949Z,22.40
2022-11-20T11:28:53.925Z,19.70
2022-11-20T11:29:53.918Z,16.40
2022-11-20T11:30:53.916Z,40.30
2022-11-20T11:31:53.886Z,26.60
2022-11-20T11:32:53.889Z,22.50
2022-11-20T11:33:53.867Z,18.10
2022-11-20T11:34:53.860Z,17.70
2022-11-20T11:35:53.848Z,21.80
2022-11-20T11:36:53.818Z,21.40
2022-11-20T11:37:53.817Z,19.50
2022-11-20T11:38:53.797Z,51.40
2022-11-20T11:40:22.476Z,34.40
2022-11-20T11:40:54.786Z,21.60
2022-11-20T11:41:53.757Z,21.10
2022-11-20T11:42:53.746Z,20.10
2022-11-20T11:43:53.727Z,52.40
2022-11-20T11:45:00.806Z,36.40
2022-11-20T11:45:53.717Z,46.70
2022-11-20T11:46:53.695Z,47.20
2022-11-20T11:47:55.014Z,25.70
2022-11-20T11:48:53.676Z,33.80
2022-11-20T11:49:53.656Z,37.00
2022-11-20T11:50:53.677Z,27.10
2022-11-20T11:51:53.627Z,20.70
2022-11-20T11:52:53.634Z,26.00
2022-11-20T11:53:53.595Z,25.30
2022-11-20T11:54:53.587Z,22.70
2022-11-20T11:55:53.605Z,47.40
2022-11-20T11:56:53.556Z,24.00
2022-11-20T11:57:53.544Z,40.10
2022-11-20T11:58:53.626Z,26.90
2022-11-20T11:59:53.519Z,23.00
2022-11-20T12:00:53.536Z,22.40
2022-11-20T12:01:53.533Z,23.10
2022-11-20T12:02:53.485Z,20.10
2022-11-20T12:03:53.464Z,25.10
2022-11-20T12:04:53.464Z,23.00
2022-11-20T12:05:53.465Z,22.10
2022-11-20T12:06:53.434Z,23.40
2022-11-20T12:07:53.460Z,24.20
2022-11-20T12:08:53.403Z,26.40
2022-11-20T12:09:53.386Z,25.50
2022-11-20T12:10:53.374Z,23.10
2022-11-20T12:11:53.374Z,20.50
2022-11-20T12:12:53.345Z,23.00
2022-11-20T12:13:53.342Z,22.90
2022-11-20T12:14:53.321Z,22.40
2022-11-20T12:15:53.313Z,21.00
2022-11-20T12:16:53.312Z,23.70
2022-11-20T12:17:53.303Z,19.00
2022-11-20T12:18:53.272Z,20.50
2022-11-20T12:19:53.266Z,20.90
2022-11-20T12:20:53.243Z,22.20
2022-11-20T12:21:57.260Z,20.00
2022-11-20T12:22:54.233Z,22.80
2022-11-20T12:23:53.203Z,19.90
2022-11-20T12:24:53.193Z,21.10
2022-11-20T12:25:53.181Z,19.90
2022-11-20T12:26:53.172Z,23.10
2022-11-20T12:27:53.143Z,22.10
2022-11-20T12:28:53.135Z,19.70
2022-11-20T12:29:53.111Z,21.90
2022-11-20T12:30:53.101Z,24.50
2022-11-20T12:31:53.101Z,21.20
2022-11-20T12:32:53.080Z,22.30
2022-11-20T12:33:53.071Z,19.90
2022-11-20T12:34:53.056Z,25.30
2022-11-20T12:35:53.041Z,24.00
2022-11-20T12:36:53.040Z,20.60
2022-11-20T12:37:53.019Z,22.10
2022-11-20T12:38:53.003Z,22.50
2022-11-20T12:39:53.000Z,21.70
2022-11-20T12:40:52.987Z,19.60
2022-11-20T12:41:52.979Z,25.30
2022-11-20T12:42:52.940Z,23.50
2022-11-20T12:43:52.939Z,24.20
2022-11-20T12:44:52.928Z,26.60
2022-11-20T12:45:52.908Z,23.70
2022-11-20T12:46:52.929Z,26.10
2022-11-20T12:47:52.896Z,24.70
2022-11-20T12:48:52.879Z,28.70
2022-11-20T12:49:52.859Z,25.30
2022-11-20T12:51:14.080Z,26.80
2022-11-20T12:51:53.869Z,24.00
2022-11-20T12:52:52.818Z,28.40
2022-11-20T12:53:52.798Z,25.70
2022-11-20T12:54:52.796Z,25.40
2022-11-20T12:55:52.778Z,28.90
2022-11-20T12:56:52.757Z,27.70
2022-11-20T12:57:52.770Z,27.90
2022-11-20T12:58:52.727Z,30.10
2022-11-20T12:59:52.728Z,25.70
2022-11-20T13:00:52.774Z,27.50
2022-11-20T13:01:52.720Z,30.70
2022-11-20T13:02:52.756Z,28.30
2022-11-20T13:03:52.678Z,25.80
2022-11-20T13:04:52.657Z,27.60
2022-11-20T13:05:52.646Z,28.50
2022-11-20T13:06:52.635Z,29.90
2022-11-20T13:07:52.625Z,25.90
2022-11-20T13:08:52.605Z,27.90
2022-11-20T13:09:52.594Z,27.40
2022-11-20T13:10:52.601Z,26.90
2022-11-20T13:11:52.564Z,26.10
2022-11-20T13:12:52.575Z,29.90
2022-11-20T13:13:52.545Z,28.30
2022-11-20T13:14:52.547Z,29.00
2022-11-20T13:15:52.514Z,29.70
2022-11-20T13:16:52.503Z,30.20
2022-11-20T13:17:52.504Z,31.80
2022-11-20T13:18:52.465Z,34.50
2022-11-20T13:19:52.494Z,34.20
2022-11-20T13:20:52.443Z,36.10
2022-11-20T13:21:52.473Z,38.80
2022-11-20T13:22:52.441Z,36.90
2022-11-20T13:23:52.412Z,41.80
2022-11-20T13:24:52.392Z,40.10
2022-11-20T13:25:52.382Z,41.90
2022-11-20T13:26:52.382Z,42.40
2022-11-20T13:27:52.384Z,46.40
2022-11-20T13:28:52.348Z,47.00
2022-11-20T13:29:52.352Z,47.50
2022-11-20T13:30:52.327Z,55.00
2022-11-20T13:31:52.371Z,58.50
2022-11-20T13:32:52.353Z,56.60
2022-11-20T13:33:52.280Z,62.20
2022-11-20T13:34:52.273Z,60.50
2022-11-20T13:35:52.281Z,63.70
2022-11-20T13:36:52.240Z,60.10
2022-11-20T13:37:52.240Z,66.30
2022-11-20T13:38:52.222Z,64.20
2022-11-20T13:39:52.200Z,67.40
2022-11-20T13:40:52.180Z,58.50
2022-11-20T13:41:52.180Z,59.50
2022-11-20T13:42:52.171Z,53.40
2022-11-20T13:43:52.154Z,60.10
2022-11-20T13:44:52.178Z,58.30
2022-11-20T13:45:52.120Z,53.50
2022-11-20T13:46:52.106Z,57.10
2022-11-20T13:47:52.128Z,55.90
2022-11-20T13:48:52.078Z,55.20
2022-11-20T13:49:52.078Z,52.20
2022-11-20T13:50:52.046Z,58.50
2022-11-20T13:51:52.068Z,52.50
2022-11-20T13:52:52.048Z,53.40
2022-11-20T13:53:52.018Z,54.10
2022-11-20T13:54:52.051Z,50.30
2022-11-20T13:55:51.999Z,49.70
2022-11-20T13:56:51.974Z,51.10
2022-11-20T13:57:51.977Z,47.60
2022-11-20T13:58:51.966Z,49.50
2022-11-20T13:59:51.989Z,48.90
2022-11-20T14:00:51.971Z,47.00
2022-11-20T14:01:51.915Z,46.90
2022-11-20T14:02:51.915Z,44.90
2022-11-20T14:04:05.747Z,44.30
2022-11-20T14:04:52.888Z,43.00
2022-11-20T14:05:51.900Z,46.80
2022-11-20T14:06:51.844Z,46.70
2022-11-20T14:07:51.833Z,47.90
2022-11-20T14:08:51.824Z,50.70
2022-11-20T14:09:51.813Z,46.40
2022-11-20T14:10:51.792Z,47.70
2022-11-20T14:11:51.793Z,43.20
2022-11-20T14:12:51.762Z,41.90
2022-11-20T14:13:51.773Z,39.00
2022-11-20T14:14:51.742Z,42.70
2022-11-20T14:15:51.731Z,43.40
2022-11-20T14:16:51.711Z,37.90
2022-11-20T14:17:51.704Z,42.10
2022-11-20T14:18:51.701Z,39.30
2022-11-20T14:19:51.679Z,39.90
2022-11-20T14:20:51.679Z,37.90
2022-11-20T14:21:51.659Z,40.50
2022-11-20T14:22:51.631Z,39.00
2022-11-20T14:23:51.670Z,47.00
2022-11-20T14:24:51.611Z,39.80
2022-11-20T14:25:51.600Z,40.90
2022-11-20T14:26:51.588Z,39.40
2022-11-20T14:27:51.579Z,34.90
2022-11-20T14:28:51.559Z,41.00
2022-11-20T14:29:51.549Z,40.70
2022-11-20T14:30:51.531Z,40.40
2022-11-20T14:31:54.170Z,39.40
2022-11-20T14:32:51.511Z,38.20
2022-11-20T14:33:51.527Z,37.60
2022-11-20T14:34:51.480Z,35.80
2022-11-20T14:35:51.475Z,37.60
2022-11-20T14:36:51.457Z,39.00
2022-11-20T14:37:51.438Z,36.70
2022-11-20T14:38:51.437Z,38.30
2022-11-20T14:39:51.418Z,38.20
2022-11-20T14:40:51.395Z,40.00
2022-11-20T14:41:51.397Z,36.40
2022-11-20T14:42:51.376Z,38.60
2022-11-20T14:43:51.377Z,39.10
2022-11-20T14:44:51.348Z,41.50
2022-11-20T14:45:51.337Z,41.50
2022-11-20T14:46:51.336Z,39.50
2022-11-20T14:47:51.314Z,38.50
2022-11-20T14:48:51.371Z,41.40
2022-11-20T14:49:51.285Z,42.40
2022-11-20T14:50:51.274Z,43.50
2022-11-20T14:51:51.380Z,42.60
2022-11-20T14:52:51.244Z,36.60
2022-11-20T14:53:51.244Z,41.20
2022-11-20T14:54:51.223Z,36.60
2022-11-20T14:55:56.197Z,37.30
2022-11-20T14:56:52.192Z,37.40
2022-11-20T14:57:51.204Z,38.60
2022-11-20T14:58:51.183Z,39.30
2022-11-20T14:59:51.151Z,44.50
2022-11-20T15:00:51.143Z,43.30
2022-11-20T15:01:51.287Z,46.60
2022-11-20T15:02:51.112Z,55.30
2022-11-20T15:03:51.137Z,54.90
2022-11-20T15:04:51.095Z,58.00
2022-11-20T15:05:51.071Z,53.80
2022-11-20T15:06:51.073Z,47.20
2022-11-20T15:07:51.041Z,50.80
2022-11-20T15:08:51.042Z,44.90
2022-11-20T15:09:51.021Z,40.00
2022-11-20T15:10:51.009Z,45.50
2022-11-20T15:11:50.990Z,38.30
2022-11-20T15:12:50.990Z,40.50
2022-11-20T15:13:50.988Z,40.20
2022-11-20T15:14:50.960Z,51.40
2022-11-20T15:15:50.968Z,61.10
2022-11-20T15:16:50.941Z,63.00
2022-11-20T15:17:50.919Z,56.40
2022-11-20T15:18:50.923Z,46.20
2022-11-20T15:19:50.897Z,46.50
2022-11-20T15:20:50.888Z,46.00
2022-11-20T15:21:50.868Z,42.80
2022-11-20T15:22:50.860Z,43.50
2022-11-20T15:23:50.849Z,39.40
2022-11-20T15:24:50.827Z,43.90
2022-11-20T15:25:50.831Z,43.30
2022-11-20T15:26:50.798Z,36.60
2022-11-20T15:27:50.794Z,45.40
2022-11-20T15:28:50.794Z,53.30
2022-11-20T15:29:50.756Z,46.70
2022-11-20T15:30:50.757Z,45.70
2022-11-20T15:31:50.736Z,46.20
2022-11-20T15:32:50.728Z,45.90
2022-11-20T15:33:50.725Z,47.20
2022-11-20T15:34:50.703Z,51.00
2022-11-20T15:35:50.675Z,51.00
2022-11-20T15:36:50.676Z,45.50
2022-11-20T15:37:50.655Z,42.70
2022-11-20T15:38:50.655Z,47.20
2022-11-20T15:39:50.624Z,44.70
2022-11-20T15:40:50.623Z,42.30
2022-11-20T15:41:50.633Z,45.80
2022-11-20T15:42:50.613Z,42.10
2022-11-20T15:43:50.593Z,39.00
2022-11-20T15:44:50.593Z,46.40
2022-11-20T15:45:50.558Z,55.50
2022-11-20T15:46:50.545Z,47.10
2022-11-20T15:47:50.526Z,51.60
2022-11-20T15:48:50.521Z,55.90
2022-11-20T15:49:50.532Z,49.50
2022-11-20T15:50:50.492Z,48.00
2022-11-20T15:51:50.473Z,46.80
2022-11-20T15:52:50.471Z,52.40
2022-11-20T15:53:50.480Z,45.00
2022-11-20T15:54:50.499Z,44.10
2022-11-20T15:55:50.444Z,36.80
2022-11-20T15:56:50.417Z,35.00
2022-11-20T15:57:50.398Z,35.90
2022-11-20T15:58:50.411Z,38.70
2022-11-20T15:59:50.478Z,37.20
2022-11-20T16:00:50.393Z,40.10
2022-11-20T16:01:50.405Z,37.60
2022-11-20T16:02:50.341Z,38.40
2022-11-20T16:03:50.331Z,39.60
2022-11-20T16:04:50.381Z,39.00
2022-11-20T16:05:50.307Z,35.20
2022-11-20T16:06:50.290Z,35.10
2022-11-20T16:07:50.268Z,34.80
2022-11-20T16:08:50.258Z,35.40
2022-11-20T16:09:50.257Z,34.80
2022-11-20T16:10:50.239Z,31.60
2022-11-20T16:11:50.215Z,34.30
2022-11-20T16:12:50.210Z,34.40
2022-11-20T16:13:50.327Z,34.80
2022-11-20T16:14:50.240Z,34.70
2022-11-20T16:15:50.155Z,32.30
2022-11-20T16:16:50.169Z,34.80
2022-11-20T16:17:50.137Z,34.40
2022-11-20T16:18:50.141Z,37.60
2022-11-20T16:19:50.146Z,35.20
2022-11-20T16:20:50.107Z,33.30
2022-11-20T16:21:50.086Z,33.00
2022-11-20T16:22:50.074Z,37.70
2022-11-20T16:23:50.074Z,35.40
2022-11-20T16:24:50.066Z,35.70
2022-11-20T16:25:50.075Z,38.10
2022-11-20T16:26:50.038Z,36.40
2022-11-20T16:27:50.009Z,36.90
2022-11-20T16:28:50.004Z,35.30
2022-11-20T16:29:49.992Z,35.70
2022-11-20T16:30:49.988Z,38.20
2022-11-20T16:31:49.955Z,37.10
2022-11-20T16:32:49.952Z,39.70
2022-11-20T16:33:49.957Z,39.50
2022-11-20T16:34:49.926Z,36.10
2022-11-20T16:35:49.921Z,50.40
2022-11-20T16:36:49.894Z,50.70
2022-11-20T16:37:49.881Z,46.60
2022-11-20T16:38:49.859Z,48.10
2022-11-20T16:39:49.921Z,45.60
2022-11-20T16:40:49.836Z,43.00
2022-11-20T16:41:49.823Z,47.40
2022-11-20T16:42:49.811Z,43.60
2022-11-20T16:43:49.816Z,42.50
2022-11-20T16:44:49.829Z,46.60
2022-11-20T16:45:49.769Z,40.90
2022-11-20T16:46:49.749Z,44.30
2022-11-20T16:47:49.937Z,42.10
2022-11-20T16:48:49.729Z,42.50
2022-11-20T16:49:49.729Z,49.60
2022-11-20T16:50:49.698Z,44.90
2022-11-20T16:51:49.699Z,42.70
2022-11-20T16:52:49.679Z,44.50
2022-11-20T16:53:49.668Z,45.90
2022-11-20T16:54:49.658Z,47.70
2022-11-20T16:55:49.648Z,47.00
2022-11-20T16:56:49.627Z,49.20
2022-11-20T16:57:49.618Z,45.80
2022-11-20T16:58:49.598Z,47.30
2022-11-20T16:59:49.607Z,45.60
2022-11-20T17:00:51.833Z,43.70
2022-11-20T17:01:49.614Z,45.00
2022-11-20T17:02:49.553Z,51.40
2022-11-20T17:03:49.544Z,44.00
2022-11-20T17:04:49.535Z,46.10
2022-11-20T17:05:49.505Z,49.30
2022-11-20T17:06:49.514Z,47.70
2022-11-20T17:07:49.567Z,51.10
2022-11-20T17:08:49.476Z,49.70
2022-11-20T17:09:49.474Z,57.60
2022-11-20T17:10:49.445Z,54.20
2022-11-20T17:11:49.435Z,51.30
2022-11-20T17:12:49.413Z,49.50
2022-11-20T17:13:49.425Z,53.10
2022-11-20T17:14:49.403Z,44.90
2022-11-20T17:15:49.383Z,49.60
2022-11-20T17:16:49.362Z,51.50
2022-11-20T17:17:49.362Z,50.10
2022-11-20T17:18:49.343Z,53.70
2022-11-20T17:19:49.342Z,59.40
2022-11-20T17:20:49.315Z,50.50
2022-11-20T17:21:49.304Z,50.80
2022-11-20T17:22:49.291Z,47.70
2022-11-20T17:23:49.281Z,52.30
2022-11-20T17:24:49.282Z,52.00
2022-11-20T17:25:49.251Z,51.80
2022-11-20T17:26:49.231Z,50.30
2022-11-20T17:27:49.232Z,48.60
2022-11-20T17:28:49.209Z,51.90
2022-11-20T17:29:49.219Z,52.80
2022-11-20T17:30:49.180Z,55.60
2022-11-20T17:31:49.180Z,57.00
2022-11-20T17:32:49.158Z,56.00
2022-11-20T17:33:49.149Z,56.60
2022-11-20T17:34:49.137Z,55.60
2022-11-20T17:35:49.138Z,58.70
2022-11-20T17:36:49.110Z,63.40
2022-11-20T17:37:49.099Z,65.40
2022-11-20T17:38:49.077Z,59.00
2022-11-20T17:39:49.098Z,59.80
2022-11-20T17:40:49.066Z,65.40
2022-11-20T17:41:49.048Z,58.70
2022-11-20T17:42:49.030Z,58.30
2022-11-20T17:43:49.017Z,62.60
2022-11-20T17:45:48.409Z,60.70
2022-11-20T17:46:48.304Z,59.90
2022-11-20T17:47:48.349Z,58.50
2022-11-20T17:48:48.282Z,57.50
2022-11-20T17:49:48.274Z,64.30
2022-11-20T17:50:48.273Z,59.70
2022-11-20T17:51:48.267Z,61.70
2022-11-20T17:52:48.241Z,62.90
2022-11-20T17:53:48.258Z,61.50
2022-11-20T17:54:48.212Z,64.00
2022-11-20T17:55:52.751Z,64.60
2022-11-20T17:56:49.179Z,59.10
2022-11-20T17:57:48.197Z,64.30
2022-11-20T17:58:48.192Z,65.90
2022-11-20T17:59:48.141Z,62.10
2022-11-20T18:00:48.172Z,61.20
2022-11-20T18:01:48.256Z,62.30
2022-11-20T18:02:48.110Z,65.70
2022-11-20T18:03:48.158Z,60.30
2022-11-20T18:04:48.118Z,64.20
2022-11-20T18:05:48.121Z,62.00
2022-11-20T18:06:48.060Z,54.40
2022-11-20T18:07:48.070Z,56.50
2022-11-20T18:08:48.040Z,59.30
2022-11-20T18:09:48.040Z,61.80
2022-11-20T18:10:48.047Z,56.50
2022-11-20T18:11:47.988Z,60.00
2022-11-20T18:12:47.979Z,56.30
2022-11-20T18:13:48.084Z,65.40
2022-11-20T18:14:47.960Z,64.20
2022-11-20T18:15:47.955Z,66.60
2022-11-20T18:16:47.945Z,63.60
2022-11-20T18:17:47.917Z,62.90
2022-11-20T18:18:47.908Z,61.80
2022-11-20T18:20:07.120Z,62.00
2022-11-20T18:20:48.896Z,68.80
2022-11-20T18:21:47.864Z,69.70
2022-11-20T18:22:47.857Z,67.00
2022-11-20T18:23:47.836Z,65.40
2022-11-20T18:24:47.827Z,64.60